Time;durP1;ratioP1;P1;durP2;ratioP2;P2;SDS_P1;SDS_P2;PMS_P1;PMS_P2;Temp;Humidity;BMP_temperature;BMP_pressure;BME280_temperature;BME280_humidity;BME280_pressure;Samples;Min_cycle;Max_cycle;Signal;HPM_P1;HPM_P2
2023/04/03 00:01:01;;;;;;;2.20;2.00;;;15.50;60.50;16.20;102038.00;;;;4990469;28;20552;-49
2023/04/03 00:03:26;;;;;;;2.10;1.90;;;15.50;60.50;16.20;102029.00;;;;4989979;28;20242;-49
2023/04/03 00:05:52;;;;;;;2.10;2.00;;;15.50;60.50;16.20;102032.00;;;;4990194;28;20176;-48
2023/04/03 00:08:18;;;;;;;1.90;1.80;;;15.40;60.40;16.20;102035.00;;;;4990331;28;20168;-49
2023/04/03 00:10:44;;;;;;;2.07;1.97;;;15.40;61.30;16.20;102041.00;;;;4990295;28;20725;-49
2023/04/03 00:13:09;;;;;;;2.10;2.00;;;15.40;60.50;16.20;102035.00;;;;4990240;28;20184;-49
2023/04/03 00:15:35;;;;;;;2.27;2.07;;;15.40;60.50;16.20;102030.00;;;;4990111;28;20306;-48
2023/04/03 00:18:02;;;;;;;2.10;1.90;;;15.40;60.50;16.20;102042.00;;;;4989896;28;20184;-49
2023/04/03 00:20:27;;;;;;;2.07;1.93;;;15.30;60.50;16.10;102035.00;;;;4988824;28;20588;-49
2023/04/03 00:22:53;;;;;;;2.27;2.07;;;15.30;60.40;16.10;102035.00;;;;4989330;28;20188;-48
2023/04/03 00:25:19;;;;;;;1.90;1.80;;;15.30;60.40;16.10;102045.00;;;;4989571;28;20326;-49
2023/04/03 00:27:45;;;;;;;1.97;1.87;;;15.30;60.50;16.10;102030.00;;;;4989574;28;20635;-48
2023/04/03 00:30:14;;;;;;;2.30;2.10;;;15.30;60.50;16.10;102041.00;;;;4989393;28;20172;-49
2023/04/03 00:32:40;;;;;;;2.00;1.90;;;15.30;60.60;16.10;102031.00;;;;4989588;28;21552;-49
2023/04/03 00:35:06;;;;;;;2.27;2.07;;;15.30;60.50;16.10;102037.00;;;;4989667;28;20627;-49
2023/04/03 00:37:32;;;;;;;1.93;1.83;;;15.20;60.40;16.10;102033.00;;;;4989583;28;20554;-48
2023/04/03 00:39:57;;;;;;;1.90;1.80;;;15.20;60.40;16.00;102045.00;;;;4989468;28;20182;-48
2023/04/03 00:42:23;;;;;;;1.90;1.80;;;15.20;60.40;16.00;102035.00;;;;4989268;28;20180;-48
2023/04/03 00:44:49;;;;;;;2.27;2.10;;;15.20;60.40;16.00;102021.00;;;;4989449;28;20188;-49
2023/04/03 00:47:16;;;;;;;2.20;2.00;;;15.20;60.40;16.00;102021.00;;;;4989453;28;20271;-49
2023/04/03 00:49:42;;;;;;;2.00;1.90;;;15.30;60.50;16.00;102039.00;;;;4971957;28;20176;-48
2023/04/03 00:52:12;;;;;;;2.33;1.80;;;15.20;61.30;16.00;102039.00;;;;4989027;28;20263;-49
2023/04/03 00:54:38;;;;;;;2.20;2.00;;;15.20;60.50;16.00;102029.00;;;;4987924;28;20271;-49
2023/04/03 00:57:04;;;;;;;1.87;1.77;;;15.20;60.50;16.00;102030.00;;;;4971737;28;20267;-49
2023/04/03 00:59:40;;;;;;;2.20;2.00;;;15.10;60.90;16.00;102033.00;;;;4971699;28;20196;-48
2023/04/03 01:02:06;;;;;;;1.97;1.87;;;15.10;60.70;15.90;102033.00;;;;4989092;28;20175;-49
2023/04/03 01:04:32;;;;;;;2.00;1.90;;;15.20;60.70;15.90;102025.00;;;;4989154;28;20238;-49
2023/04/03 01:07:02;;;;;;;1.97;1.87;;;15.10;60.50;15.90;102029.00;;;;4989223;28;20180;-48
2023/04/03 01:09:28;;;;;;;2.30;2.17;;;15.10;60.40;15.90;102034.00;;;;4971865;28;20212;-49
2023/04/03 01:11:54;;;;;;;2.60;2.40;;;15.10;60.30;15.80;102025.00;;;;4987694;28;20211;-48
2023/04/03 01:14:19;;;;;;;2.10;2.00;;;15.00;60.10;15.80;102035.00;;;;4988942;28;20203;-49
2023/04/03 01:16:53;;;;;;;2.10;2.00;;;15.00;59.90;15.70;102036.00;;;;4989155;28;20180;-49
2023/04/03 01:19:19;;;;;;;2.50;2.30;;;15.00;59.80;15.70;102034.00;;;;4987931;28;20268;-50
2023/04/03 01:22:19;;;;;;;2.20;2.00;;;14.90;59.60;15.70;102034.00;;;;4971636;28;20188;-48
2023/04/03 01:24:47;;;;;;;2.27;2.10;;;14.90;59.60;15.70;102037.00;;;;4987745;28;20216;-48
2023/04/03 01:27:12;;;;;;;2.77;2.20;;;14.90;59.60;15.70;102035.00;;;;4987752;28;20184;-49
2023/04/03 01:29:38;;;;;;;2.30;2.10;;;14.90;59.60;15.70;102022.00;;;;4988724;28;20184;-48
2023/04/03 01:32:04;;;;;;;2.40;2.20;;;14.90;59.60;15.60;102029.00;;;;4971217;28;20215;-49
2023/04/03 01:34:30;;;;;;;2.43;2.23;;;14.90;59.60;15.60;102026.00;;;;4988775;28;20355;-49
2023/04/03 01:36:56;;;;;;;2.83;2.10;;;14.90;59.60;15.60;102041.00;;;;4988768;28;20552;-49
2023/04/03 01:39:22;;;;;;;2.40;2.20;;;14.90;59.60;15.60;102035.00;;;;4988805;28;20825;-48
2023/04/03 01:41:48;;;;;;;2.40;2.20;;;14.90;59.70;15.60;102035.00;;;;4988746;28;20272;-49
2023/04/03 01:44:13;;;;;;;2.20;2.10;;;14.90;59.70;15.30;102035.00;;;;4988508;28;20655;-48
2023/04/03 01:46:39;;;;;;;2.63;2.37;;;14.90;59.70;15.60;102041.00;;;;4988556;28;20509;-49
2023/04/03 01:49:05;;;;;;;2.30;2.10;;;14.80;59.60;15.50;102037.00;;;;4988694;28;20181;-48
2023/04/03 01:51:31;;;;;;;2.30;2.10;;;14.80;59.70;15.50;102052.00;;;;4987361;28;20733;-48
2023/04/03 01:53:56;;;;;;;2.30;2.10;;;14.80;59.70;15.50;102037.00;;;;4988820;28;20193;-49
2023/04/03 01:56:22;;;;;;;2.20;2.00;;;14.80;59.80;15.50;102049.00;;;;4989983;28;20789;-49
2023/04/03 01:58:48;;;;;;;2.43;2.10;;;14.80;59.80;15.50;102037.00;;;;4988871;28;20176;-48
2023/04/03 02:01:14;;;;;;;2.30;2.10;;;14.80;59.80;15.50;102039.00;;;;4988722;28;20172;-49
2023/04/03 02:03:40;;;;;;;2.40;2.20;;;14.80;59.80;15.50;102042.00;;;;4988495;28;20283;-49
2023/04/03 02:06:06;;;;;;;2.00;1.90;;;14.70;59.80;15.50;102037.00;;;;4988646;28;20271;-49
2023/04/03 02:08:32;;;;;;;2.30;2.10;;;14.70;59.80;15.50;102034.00;;;;4988825;28;20639;-48
2023/04/03 02:10:57;;;;;;;2.33;2.17;;;14.80;59.90;15.40;102031.00;;;;4988911;28;20587;-49
2023/04/03 02:13:23;;;;;;;2.40;2.20;;;14.70;59.80;15.40;102032.00;;;;4988151;28;20197;-49
2023/04/03 02:15:49;;;;;;;2.17;1.97;;;14.70;59.90;15.40;102030.00;;;;4989554;28;20176;-48
2023/04/03 02:18:15;;;;;;;2.00;1.90;;;14.70;59.90;15.40;102031.00;;;;4991976;28;20172;-48
2023/04/03 02:20:40;;;;;;;2.40;2.17;;;14.70;59.90;15.40;102033.00;;;;4991874;28;20168;-47
2023/04/03 02:23:06;;;;;;;2.50;2.30;;;14.70;59.90;15.40;102039.00;;;;4991481;28;20249;-47
2023/04/03 02:25:32;;;;;;;2.20;2.00;;;14.60;59.80;15.40;101959.00;;;;4991944;28;20224;-49
2023/04/03 02:27:58;;;;;;;2.43;2.23;;;14.70;60.00;15.30;102031.00;;;;4990707;28;20176;-50
2023/04/03 02:30:23;;;;;;;2.20;2.10;;;14.60;60.00;15.30;102045.00;;;;4991763;28;20648;-49
2023/04/03 02:32:49;;;;;;;2.33;2.13;;;14.60;60.00;15.40;102046.00;;;;4991473;28;20212;-49
2023/04/03 02:35:15;;;;;;;2.00;1.90;;;14.60;60.00;15.30;102051.00;;;;4991523;28;20817;-47
2023/04/03 02:37:40;;;;;;;2.40;2.17;;;14.60;59.90;15.30;102040.00;;;;4991580;28;20176;-48
2023/04/03 02:40:07;;;;;;;2.10;2.00;;;14.60;60.00;15.30;102040.00;;;;4991771;28;20270;-48
2023/04/03 02:42:32;;;;;;;2.50;2.30;;;14.60;60.00;15.30;102054.00;;;;4990025;28;20322;-48
2023/04/03 02:45:00;;;;;;;2.13;2.03;;;14.60;60.10;15.30;102054.00;;;;4991345;28;20662;-48
2023/04/03 02:47:27;;;;;;;2.27;2.07;;;14.60;60.10;15.30;102047.00;;;;4991355;28;20184;-48
2023/04/03 02:49:52;;;;;;;2.40;2.20;;;14.50;60.00;15.20;102051.00;;;;4991180;28;20204;-48
2023/04/03 02:52:18;;;;;;;2.00;1.90;;;14.60;60.10;15.20;102047.00;;;;4991001;28;20219;-47
2023/04/03 02:54:44;;;;;;;2.10;2.00;;;14.50;60.00;15.20;102047.00;;;;4991150;28;20733;-48
2023/04/03 02:57:10;;;;;;;2.13;1.97;;;14.50;60.00;15.20;102050.00;;;;4991236;28;20554;-48
2023/04/03 02:59:36;;;;;;;2.00;1.90;;;14.50;60.10;15.20;102044.00;;;;4991323;28;20173;-47
2023/04/03 03:02:02;;;;;;;1.93;1.80;;;14.50;60.10;15.20;102047.00;;;;4991415;28;20665;-47
2023/04/03 03:04:28;;;;;;;2.10;2.00;;;14.40;60.10;15.20;102039.00;;;;4991081;28;20200;-47
2023/04/03 03:06:53;;;;;;;2.10;2.00;;;14.50;60.30;15.10;102049.00;;;;4991163;28;20183;-47
2023/04/03 03:09:19;;;;;;;2.03;1.93;;;14.40;60.10;15.10;102056.00;;;;4990985;28;20199;-47
2023/04/03 03:11:45;;;;;;;2.00;1.90;;;14.40;60.20;15.10;102057.00;;;;4990952;28;20211;-46
2023/04/03 03:14:11;;;;;;;2.07;1.97;;;14.40;60.20;15.10;102053.00;;;;4990675;28;20195;-47
2023/04/03 03:16:36;;;;;;;2.00;1.90;;;14.40;60.20;15.10;102053.00;;;;4990790;28;20173;-49
2023/04/03 03:19:02;;;;;;;1.90;1.80;;;14.40;60.20;15.10;102051.00;;;;4990645;28;20259;-48
2023/04/03 03:21:28;;;;;;;2.00;1.90;;;14.40;60.30;15.10;102058.00;;;;4990845;28;20689;-48
2023/04/03 03:23:54;;;;;;;2.10;2.00;;;14.40;60.30;15.10;102048.00;;;;4990606;28;20204;-48
2023/04/03 03:26:19;;;;;;;1.90;1.80;;;14.30;60.30;15.10;102061.00;;;;4990611;28;20184;-48
2023/04/03 03:28:46;;;;;;;2.03;1.93;;;14.30;60.20;15.00;102053.00;;;;4989897;28;20645;-47
2023/04/03 03:31:12;;;;;;;2.40;2.20;;;14.40;60.70;15.00;102045.00;;;;4990726;28;20261;-48
2023/04/03 03:33:37;;;;;;;2.57;2.20;;;14.30;61.10;15.00;102054.00;;;;4990279;28;20279;-49
2023/04/03 03:36:03;;;;;;;2.20;2.00;;;14.30;60.60;15.00;102043.00;;;;4990711;28;20204;-48
2023/04/03 03:38:29;;;;;;;2.13;2.03;;;14.30;60.60;15.00;102048.00;;;;4990655;28;20677;-47
2023/04/03 03:40:55;;;;;;;2.60;2.10;;;14.30;60.60;15.00;102050.00;;;;4990484;28;20177;-47
2023/04/03 03:43:21;;;;;;;2.20;2.00;;;14.30;60.70;14.90;102046.00;;;;4990013;28;20235;-49
2023/04/03 03:45:53;;;;;;;2.00;1.90;;;14.20;60.90;14.90;102049.00;;;;4990507;28;20192;-48
2023/04/03 03:48:19;;;;;;;3.03;2.10;;;14.20;60.90;14.90;102047.00;;;;4991501;28;20172;-47
2023/04/03 03:50:45;;;;;;;2.63;2.03;;;14.30;60.80;14.90;102043.00;;;;4992043;28;20228;-47
2023/04/03 03:53:11;;;;;;;2.87;1.93;;;14.20;60.60;14.90;102052.00;;;;4991575;28;20717;-48
2023/04/03 03:55:36;;;;;;;2.30;2.10;;;14.20;60.50;14.90;102046.00;;;;4991346;28;20303;-49
2023/04/03 03:58:03;;;;;;;2.40;2.20;;;14.20;60.50;14.80;102053.00;;;;4991422;28;20179;-48
2023/04/03 04:00:29;;;;;;;2.20;2.00;;;14.10;60.30;14.80;102038.00;;;;4991425;28;20183;-49
2023/04/03 04:02:55;;;;;;;3.23;2.00;;;14.10;60.20;14.80;102036.00;;;;4991239;28;20197;-49
2023/04/03 04:05:21;;;;;;;2.30;2.10;;;14.10;60.10;14.80;102051.00;;;;4991926;28;20218;-47
2023/04/03 04:07:47;;;;;;;2.20;2.00;;;14.10;60.00;14.80;102042.00;;;;4991762;28;20597;-49
2023/04/03 04:10:13;;;;;;;2.63;2.20;;;14.00;59.80;14.70;102040.00;;;;4991417;28;20179;-48
2023/04/03 04:12:39;;;;;;;3.87;2.37;;;14.00;59.70;14.70;102049.00;;;;4990726;28;20226;-47
2023/04/03 04:15:05;;;;;;;2.27;2.07;;;14.00;59.50;14.70;102049.00;;;;4990959;28;20811;-47
2023/04/03 04:17:31;;;;;;;4.33;2.40;;;14.00;59.40;14.70;102051.00;;;;4991225;28;20184;-47
2023/04/03 04:19:57;;;;;;;2.80;2.10;;;13.90;59.20;14.60;102056.00;;;;4990979;28;20636;-49
2023/04/03 04:22:22;;;;;;;2.50;2.30;;;14.00;59.30;14.60;102049.00;;;;4990501;28;20208;-48
2023/04/03 04:24:48;;;;;;;2.30;2.10;;;14.00;59.40;14.60;102059.00;;;;4988508;28;20191;-48
2023/04/03 04:27:15;;;;;;;2.30;2.10;;;13.90;59.30;14.60;102068.00;;;;4989826;28;20536;-48
2023/04/03 04:29:41;;;;;;;2.20;2.00;;;14.00;59.50;14.60;102062.00;;;;4989808;28;20172;-48
2023/04/03 04:32:07;;;;;;;5.83;2.10;;;14.00;59.50;14.60;102062.00;;;;4989510;28;20705;-48
2023/04/03 04:34:33;;;;;;;9.23;2.20;;;13.90;59.50;14.60;102067.00;;;;4990318;28;20223;-47
2023/04/03 04:36:59;;;;;;;8.77;3.27;;;13.90;59.60;14.60;102057.00;;;;4990154;28;20260;-47
2023/04/03 04:39:25;;;;;;;19.07;4.10;;;13.90;59.70;14.60;102071.00;;;;4989430;28;20180;-47
2023/04/03 04:41:51;;;;;;;9.57;3.23;;;13.90;59.70;14.60;102072.00;;;;4990085;28;20184;-48
2023/04/03 04:44:17;;;;;;;17.73;3.90;;;13.90;59.80;14.60;102074.00;;;;4989588;28;20573;-49
2023/04/03 04:46:42;;;;;;;13.50;3.63;;;13.90;59.80;14.50;102059.00;;;;4990097;28;20220;-49
2023/04/03 04:49:08;;;;;;;13.13;3.10;;;13.90;59.80;14.50;102062.00;;;;4989134;28;20257;-48
2023/04/03 04:51:34;;;;;;;10.67;3.47;;;13.80;59.80;14.50;102078.00;;;;4989504;28;20211;-48
2023/04/03 04:53:59;;;;;;;10.00;3.57;;;13.80;59.80;14.50;102076.00;;;;4988857;28;20274;-49
2023/04/03 04:56:26;;;;;;;8.33;2.93;;;13.80;59.80;14.50;102079.00;;;;4988506;28;20234;-49
2023/04/03 04:58:51;;;;;;;6.27;3.07;;;13.80;59.80;14.50;102076.00;;;;4989869;28;20650;-49
2023/04/03 05:01:18;;;;;;;11.47;3.10;;;13.80;59.80;14.40;102085.00;;;;4989707;28;20179;-49
2023/04/03 05:03:44;;;;;;;8.40;3.00;;;13.80;59.90;14.40;102089.00;;;;4972261;28;20207;-49
2023/04/03 05:06:10;;;;;;;7.77;2.77;;;13.70;59.90;14.40;102085.00;;;;4972218;28;20184;-49
2023/04/03 05:08:35;;;;;;;5.40;2.67;;;13.70;59.90;14.40;102086.00;;;;4989337;28;20710;-49
2023/04/03 05:11:01;;;;;;;9.33;3.00;;;13.70;59.90;14.40;102093.00;;;;4989723;28;20744;-49
2023/04/03 05:13:27;;;;;;;6.17;2.93;;;13.70;59.90;14.40;102094.00;;;;4989282;28;20200;-49
2023/04/03 05:15:52;;;;;;;8.70;2.70;;;13.70;60.00;14.40;102085.00;;;;4989711;28;20183;-49
2023/04/03 05:18:18;;;;;;;7.67;3.00;;;13.70;60.00;14.40;102099.00;;;;4989583;28;20196;-49
2023/04/03 05:20:44;;;;;;;8.77;2.73;;;13.70;60.00;14.30;102089.00;;;;4989812;28;20184;-49
2023/04/03 05:23:11;;;;;;;6.73;2.60;;;13.70;60.00;14.30;102091.00;;;;4988795;28;20258;-48
2023/04/03 05:25:39;;;;;;;7.60;2.60;;;13.70;60.00;14.30;102110.00;;;;4989764;28;20179;-49
2023/04/03 05:28:05;;;;;;;6.13;2.80;;;13.60;59.90;14.30;102089.00;;;;4989470;28;20215;-50
2023/04/03 05:30:31;;;;;;;5.70;2.60;;;13.60;59.90;14.30;102099.00;;;;4988364;28;20547;-49
2023/04/03 05:32:58;;;;;;;11.97;3.00;;;13.60;60.70;14.30;102098.00;;;;4988768;28;20192;-50
2023/04/03 05:35:24;;;;;;;4.23;2.40;;;13.60;60.00;14.30;102101.00;;;;4988575;28;20639;-49
2023/04/03 05:37:50;;;;;;;6.70;2.97;;;13.60;59.90;14.30;102105.00;;;;4989321;28;20257;-49
2023/04/03 05:40:15;;;;;;;5.00;2.63;;;13.60;60.00;14.20;102105.00;;;;4989451;28;20181;-49
2023/04/03 05:42:41;;;;;;;11.00;3.00;;;13.60;59.90;14.20;102115.00;;;;4987770;28;20203;-49
2023/04/03 05:45:07;;;;;;;7.87;2.93;;;13.60;59.90;14.20;102120.00;;;;4989495;28;20701;-50
2023/04/03 05:47:33;;;;;;;6.97;2.60;;;13.50;59.80;14.20;102116.00;;;;4972592;28;20195;-49
2023/04/03 05:49:58;;;;;;;4.00;2.60;;;13.60;59.90;14.20;102118.00;;;;4990443;28;20662;-49
2023/04/03 05:52:33;;;;;;;5.73;2.30;;;13.60;59.90;14.20;102131.00;;;;4992052;28;21096;-49
2023/04/03 05:54:59;;;;;;;6.80;2.73;;;13.50;59.90;14.20;102134.00;;;;4992385;28;20631;-49
2023/04/03 05:57:24;;;;;;;5.30;2.73;;;13.50;59.90;14.20;102133.00;;;;4992963;28;20231;-49
2023/04/03 05:59:50;;;;;;;8.53;2.70;;;13.50;59.90;14.10;102128.00;;;;4993627;28;20168;-48
2023/04/03 06:02:19;;;;;;;5.77;2.47;;;13.40;59.80;14.10;102137.00;;;;4975357;28;20176;-48
2023/04/03 06:04:45;;;;;;;4.80;2.60;;;13.60;60.10;14.10;102139.00;;;;4993409;28;20689;-48
2023/04/03 06:07:17;;;;;;;5.13;2.20;;;13.50;60.00;14.10;102125.00;;;;4991374;28;20176;-48
2023/04/03 06:09:42;;;;;;;4.03;2.70;;;13.50;60.00;14.10;102139.00;;;;4972548;28;20187;-47
2023/04/03 06:12:08;;;;;;;8.10;2.57;;;13.50;60.50;14.10;102140.00;;;;4972885;28;20208;-48
2023/04/03 06:14:35;;;;;;;4.67;2.50;;;13.50;60.20;14.10;102146.00;;;;4973637;28;20197;-48
2023/04/03 06:17:01;;;;;;;4.80;2.57;;;13.50;60.10;14.10;102145.00;;;;4973443;28;20173;-48
2023/04/03 06:19:27;;;;;;;3.93;2.30;;;13.50;60.20;14.10;102143.00;;;;4973282;28;20227;-48
2023/04/03 06:21:53;;;;;;;6.33;2.40;;;13.40;60.10;14.10;102151.00;;;;4973534;28;20166;-49
2023/04/03 06:24:19;;;;;;;4.67;2.20;;;13.40;60.10;14.10;102145.00;;;;4972432;28;20195;-47
2023/04/03 06:26:46;;;;;;;3.57;2.17;;;13.40;60.20;14.10;102151.00;;;;4973143;28;20192;-48
2023/04/03 06:29:11;;;;;;;4.03;2.30;;;13.40;60.20;14.10;102157.00;;;;4973526;28;20177;-47
2023/04/03 06:31:37;;;;;;;2.90;1.90;;;13.40;60.30;14.00;102151.00;;;;4972675;28;20232;-48
2023/04/03 06:34:03;;;;;;;3.63;2.20;;;13.40;60.30;14.00;102149.00;;;;4971133;28;20193;-48
2023/04/03 06:36:29;;;;;;;3.53;2.13;;;13.30;60.30;14.00;102151.00;;;;4972716;28;20253;-48
2023/04/03 06:38:55;;;;;;;5.07;2.40;;;13.30;60.30;14.00;102147.00;;;;4972662;28;20639;-48
2023/04/03 06:41:21;;;;;;;3.33;2.10;;;13.30;60.30;14.00;102144.00;;;;4972848;28;20224;-48
2023/04/03 06:43:46;;;;;;;3.47;2.17;;;13.30;60.40;14.00;102152.00;;;;4988346;28;20204;-48
2023/04/03 06:46:20;;;;;;;3.37;2.33;;;13.30;60.30;14.00;102152.00;;;;4991917;28;20188;-48
2023/04/03 06:48:46;;;;;;;3.33;2.10;;;13.30;60.40;14.00;102142.00;;;;4992192;28;20654;-48
2023/04/03 06:51:26;;;;;;;3.90;2.10;;;13.30;60.50;13.90;102151.00;;;;4992331;28;20195;-47
2023/04/03 06:53:53;;;;;;;4.27;2.17;;;13.20;60.50;13.90;102149.00;;;;4991699;28;20570;-48
2023/04/03 06:56:19;;;;;;;4.40;2.20;;;13.30;60.60;13.60;102148.00;;;;4991939;28;20169;-48
2023/04/03 06:58:46;;;;;;;2.13;1.93;;;13.30;60.60;13.90;102143.00;;;;4992589;28;20546;-47
2023/04/03 07:01:12;;;;;;;2.57;2.30;;;13.20;60.50;13.90;102158.00;;;;4991724;28;20176;-48
2023/04/03 07:03:38;;;;;;;3.67;2.20;;;13.20;60.60;13.90;102158.00;;;;4990140;28;20207;-48
2023/04/03 07:06:05;;;;;;;2.13;1.80;;;13.20;60.70;13.90;102163.00;;;;4990661;28;20169;-48
2023/04/03 07:08:31;;;;;;;3.00;1.80;;;13.20;60.70;13.80;102154.00;;;;4991392;28;20223;-48
2023/04/03 07:10:56;;;;;;;3.43;2.47;;;13.20;60.80;13.80;102160.00;;;;4991372;28;20192;-48
2023/04/03 07:13:22;;;;;;;3.03;2.10;;;13.20;60.90;13.80;102160.00;;;;4989652;28;20258;-48
2023/04/03 07:15:48;;;;;;;3.10;2.20;;;13.10;60.80;13.80;102172.00;;;;4991074;28;20686;-47
2023/04/03 07:18:14;;;;;;;3.37;2.00;;;13.20;61.00;13.80;102179.00;;;;4991608;28;20172;-48
2023/04/03 07:20:40;;;;;;;2.43;2.10;;;13.10;60.90;13.80;102183.00;;;;4991815;28;20247;-48
2023/04/03 07:23:06;;;;;;;3.77;2.20;;;13.10;61.00;13.80;102182.00;;;;4991469;28;20552;-48
2023/04/03 07:25:31;;;;;;;2.10;1.90;;;13.10;61.10;13.80;102179.00;;;;4991677;28;20175;-48
2023/04/03 07:27:57;;;;;;;2.03;1.83;;;13.10;61.10;13.80;102180.00;;;;4991116;28;20248;-48
2023/04/03 07:30:23;;;;;;;2.27;2.03;;;13.10;61.10;13.80;102180.00;;;;4991686;28;20164;-49
2023/04/03 07:32:49;;;;;;;2.13;1.93;;;13.10;61.10;13.70;102179.00;;;;4991391;28;20243;-49
2023/04/03 07:35:15;;;;;;;3.20;2.10;;;13.10;61.20;13.70;102171.00;;;;4991728;28;20164;-49
2023/04/03 07:37:41;;;;;;;2.93;2.00;;;13.00;61.20;13.70;102174.00;;;;4989932;28;20176;-49
2023/04/03 07:40:08;;;;;;;2.73;2.03;;;13.10;61.40;13.70;102184.00;;;;4991579;28;20182;-49
2023/04/03 07:42:34;;;;;;;2.63;1.90;;;13.10;61.50;13.70;102182.00;;;;4990823;28;20662;-49
2023/04/03 07:45:01;;;;;;;2.27;1.70;;;13.10;61.50;13.70;102188.00;;;;4990662;28;20195;-49
2023/04/03 07:47:27;;;;;;;2.73;2.00;;;13.00;61.50;13.70;102188.00;;;;4991343;28;20226;-49
2023/04/03 07:49:53;;;;;;;3.10;1.90;;;13.00;61.50;13.70;102189.00;;;;4991395;28;20264;-49
2023/04/03 07:52:19;;;;;;;2.43;2.00;;;13.00;61.60;13.70;102186.00;;;;4991308;28;20200;-49
2023/04/03 07:54:44;;;;;;;2.47;1.80;;;13.00;61.70;13.70;102187.00;;;;4990828;28;20692;-49
2023/04/03 07:57:11;;;;;;;2.13;1.87;;;13.00;61.70;13.70;102191.00;;;;4990934;28;20169;-49
2023/04/03 07:59:37;;;;;;;3.87;1.90;;;13.00;61.90;13.70;102187.00;;;;4990954;28;20272;-49
2023/04/03 08:02:04;;;;;;;4.27;1.90;;;13.00;61.90;13.70;102194.00;;;;4976989;28;20275;-48
2023/04/03 08:04:30;;;;;;;3.40;1.97;;;13.00;62.20;13.70;102201.00;;;;4971991;28;20221;-48
2023/04/03 08:06:56;;;;;;;2.87;1.90;;;13.00;62.10;13.70;102186.00;;;;4971742;28;20176;-49
2023/04/03 08:09:22;;;;;;;4.10;2.10;;;13.00;62.00;13.70;102187.00;;;;4971301;28;20169;-49
2023/04/03 08:11:48;;;;;;;3.17;2.00;;;13.00;62.40;13.70;102194.00;;;;4971563;28;20581;-49
2023/04/03 08:14:18;;;;;;;2.73;1.90;;;13.00;62.30;13.70;102191.00;;;;4975277;28;20188;-49
2023/04/03 08:16:45;;;;;;;2.80;2.00;;;13.00;63.20;13.70;102190.00;;;;4979728;28;20169;-49
2023/04/03 08:19:12;;;;;;;3.17;2.20;;;13.00;63.00;13.70;102193.00;;;;4979944;28;20222;-49
2023/04/03 08:21:41;;;;;;;4.40;2.10;;;13.00;63.40;13.70;102192.00;;;;4981410;28;20260;-48
2023/04/03 08:24:07;;;;;;;3.47;2.10;;;13.00;63.50;13.80;102196.00;;;;4985393;28;20196;-49
2023/04/03 08:26:33;;;;;;;3.73;2.20;;;13.00;63.60;13.80;102200.00;;;;4987180;28;20173;-49
2023/04/03 08:28:58;;;;;;;2.10;1.90;;;13.00;63.60;13.80;102207.00;;;;4989926;28;20231;-49
2023/04/03 08:31:24;;;;;;;3.37;1.83;;;13.00;63.40;13.80;102192.00;;;;4990071;28;20195;-49
2023/04/03 08:33:50;;;;;;;2.00;1.80;;;13.00;63.30;13.80;102200.00;;;;4989861;28;20196;-49
2023/04/03 08:36:27;;;;;;;4.90;1.77;;;13.10;63.50;13.80;102197.00;;;;4990292;28;20196;-49
2023/04/03 08:38:53;;;;;;;3.53;1.97;;;13.00;63.30;13.80;102193.00;;;;4990263;28;20196;-48
2023/04/03 08:41:30;;;;;;;2.20;1.97;;;13.00;63.30;13.80;102193.00;;;;4990181;28;20172;-48
2023/04/03 08:43:57;;;;;;;2.57;1.97;;;13.00;63.50;13.80;102197.00;;;;4990033;28;20269;-48
2023/04/03 08:46:45;;;;;;;2.97;1.80;;;13.00;63.50;13.80;102197.00;;;;4990430;28;20595;-48
2023/04/03 08:49:42;;;;;;;2.93;1.70;;;13.10;63.50;13.80;102196.00;;;;4954432;28;20560;-48
2023/04/03 08:52:14;;;;;;;3.67;2.00;;;13.00;63.50;13.70;102193.00;;;;4989124;28;20226;-49
2023/04/03 08:55:03;;;;;;;6.47;2.10;;;13.00;63.90;13.80;102191.00;;;;4973280;28;20619;-46
2023/04/03 08:57:42;;;;;;;1.90;1.70;;;13.00;64.20;13.70;102185.00;;;;4988475;28;20200;-49
2023/04/03 09:00:18;;;;;;;4.10;2.10;;;13.10;64.30;13.70;102195.00;;;;4988233;28;20176;-49
2023/04/03 09:02:48;;;;;;;4.90;2.07;;;13.10;64.30;13.70;102196.00;;;;4988613;28;20752;-48
2023/04/03 09:05:20;;;;;;;21.53;3.10;;;13.20;64.50;13.80;102191.00;;;;4972846;28;20579;-48
2023/04/03 09:07:49;;;;;;;5.80;2.23;;;13.20;64.80;13.80;102191.00;;;;4973017;28;20186;-48
2023/04/03 09:10:15;;;;;;;5.93;1.93;;;13.40;64.60;13.90;102192.00;;;;4973286;28;20182;-48
2023/04/03 09:12:46;;;;;;;8.80;2.10;;;13.50;64.50;14.00;102198.00;;;;4988758;28;20568;-49
2023/04/03 09:15:20;;;;;;;5.93;2.03;;;13.60;65.10;14.10;102201.00;;;;4973086;28;20722;-50
2023/04/03 09:18:05;;;;;;;4.23;1.80;;;13.70;65.20;14.20;102205.00;;;;5005425;28;20176;-49
2023/04/03 09:20:58;;;;;;;4.67;2.10;;;13.90;65.20;14.30;102205.00;;;;4990373;28;20183;-48
2023/04/03 09:23:41;;;;;;;4.50;2.00;;;14.00;64.90;14.50;102208.00;;;;5004013;28;20663;-48
2023/04/03 09:26:15;;;;;;;7.00;2.00;;;14.20;65.00;14.50;102204.00;;;;5005358;28;20190;-49
2023/04/03 09:28:42;;;;;;;6.37;2.00;;;14.40;64.70;14.70;102204.00;;;;4971321;28;20169;-48
2023/04/03 09:31:29;;;;;;;5.57;1.83;;;14.50;64.90;14.80;102202.00;;;;4974300;28;20197;-47
2023/04/03 09:34:02;;;;;;;4.13;1.83;;;14.70;64.70;15.00;102191.00;;;;4972869;28;20271;-47
2023/04/03 09:37:08;;;;;;;5.13;1.90;;;14.90;64.00;15.10;102198.00;;;;4973998;28;20222;-48
2023/04/03 09:39:50;;;;;;;5.20;1.80;;;15.00;63.70;15.30;102194.00;;;;4974091;28;20193;-49
2023/04/03 09:42:23;;;;;;;5.07;1.80;;;15.20;63.10;15.40;102188.00;;;;4972566;28;20200;-49
2023/04/03 09:45:01;;;;;;;3.97;1.90;;;15.40;62.90;15.50;102195.00;;;;4973992;28;20201;-49
2023/04/03 09:47:34;;;;;;;2.33;1.90;;;15.50;62.90;15.60;102193.00;;;;4974068;28;20659;-48
2023/04/03 09:50:12;;;;;;;2.37;1.70;;;15.70;62.70;15.80;102190.00;;;;4974337;28;20889;-49
2023/04/03 09:52:39;;;;;;;4.00;1.80;;;15.70;62.40;15.90;102193.00;;;;4974687;28;20571;-48
2023/04/03 09:55:29;;;;;;;4.60;1.87;;;15.80;62.60;16.00;102181.00;;;;4992454;28;20235;-50
2023/04/03 09:58:05;;;;;;;6.47;1.83;;;15.90;62.50;16.10;102185.00;;;;4990539;28;20686;-48
2023/04/03 10:00:35;;;;;;;3.70;1.63;;;15.90;62.40;16.10;102185.00;;;;4992118;28;20310;-50
2023/04/03 10:03:01;;;;;;;2.87;1.80;;;16.00;62.50;16.20;102186.00;;;;4975768;28;20238;-50
2023/04/03 10:05:27;;;;;;;3.63;1.90;;;16.10;62.50;16.30;102182.00;;;;4993579;28;20533;-48
2023/04/03 10:08:15;;;;;;;2.17;1.60;;;16.20;62.40;16.40;102177.00;;;;4994217;28;20183;-49
2023/04/03 10:10:48;;;;;;;2.73;1.77;;;16.20;62.40;16.40;102165.00;;;;4992735;28;20252;-48
2023/04/03 10:13:23;;;;;;;3.13;1.80;;;16.20;62.40;16.50;102175.00;;;;5007982;28;20200;-48
2023/04/03 10:15:56;;;;;;;3.57;1.50;;;16.20;62.40;16.50;102167.00;;;;4993447;28;20164;-47
2023/04/03 10:18:45;;;;;;;2.60;1.50;;;16.30;62.30;16.60;102171.00;;;;5008489;28;20172;-48
2023/04/03 10:21:42;;;;;;;2.97;1.57;;;16.30;62.40;16.70;102171.00;;;;5008429;28;20173;-48
2023/04/03 10:24:32;;;;;;;2.00;1.63;;;16.40;62.50;16.70;102174.00;;;;4993162;28;20215;-49
2023/04/03 10:27:18;;;;;;;4.07;1.53;;;16.40;62.50;16.70;102162.00;;;;5008673;28;20180;-49
2023/04/03 10:30:06;;;;;;;3.13;1.60;;;16.40;62.50;16.80;102170.00;;;;4976646;28;20647;-48
2023/04/03 10:32:50;;;;;;;2.03;1.37;;;16.40;62.50;16.80;102174.00;;;;4991824;28;20230;-48
2023/04/03 10:35:46;;;;;;;2.93;1.70;;;16.40;62.70;16.80;102172.00;;;;4993582;28;20591;-49
2023/04/03 10:38:24;;;;;;;1.93;1.60;;;16.40;62.70;16.80;102141.00;;;;4991538;28;20273;-49
2023/04/03 10:41:10;;;;;;;2.80;1.67;;;16.40;62.70;16.80;102159.00;;;;5008365;28;20168;-49
2023/04/03 10:43:42;;;;;;;1.90;1.50;;;16.40;62.90;16.90;102170.00;;;;4991490;28;20858;-49
2023/04/03 10:46:16;;;;;;;1.77;1.60;;;16.50;63.00;16.90;102167.00;;;;4992698;28;20180;-49
2023/04/03 10:49:04;;;;;;;1.73;1.37;;;16.50;63.00;16.90;102158.00;;;;5007375;28;20550;-49
2023/04/03 10:51:41;;;;;;;1.90;1.70;;;16.40;62.90;16.90;102152.00;;;;5008129;28;20202;-49
2023/04/03 10:54:17;;;;;;;1.77;1.50;;;16.40;62.90;17.00;102157.00;;;;4991874;28;20440;-49